createdAt,value
2023-03-20T00:01:30.214Z,10.14
2023-03-20T00:03:58.532Z,10.12
2023-03-20T00:06:31.499Z,10.12
2023-03-20T00:08:59.650Z,10.10
2023-03-20T00:11:49.571Z,10.09
2023-03-20T00:14:20.532Z,10.09
2023-03-20T00:16:49.643Z,9.98
2023-03-20T00:19:26.590Z,10.09
2023-03-20T00:21:55.739Z,10.07
2023-03-20T00:24:24.737Z,10.04
2023-03-20T00:26:53.671Z,10.02
2023-03-20T00:29:27.777Z,9.99
2023-03-20T00:31:56.002Z,9.95
2023-03-20T00:34:29.131Z,9.89
2023-03-20T00:36:58.303Z,9.69
2023-03-20T00:39:26.562Z,9.83
2023-03-20T00:42:06.811Z,9.81
2023-03-20T00:44:48.084Z,9.82
2023-03-20T00:47:21.892Z,9.82
2023-03-20T00:49:53.064Z,9.83
2023-03-20T00:52:22.494Z,9.83
2023-03-20T00:54:52.936Z,9.85
2023-03-20T00:57:40.076Z,9.82
2023-03-20T01:00:29.819Z,9.81
2023-03-20T01:02:59.088Z,9.75
2023-03-20T01:05:27.815Z,9.75
2023-03-20T01:07:56.533Z,9.75
2023-03-20T01:10:30.178Z,9.76
2023-03-20T01:12:59.637Z,9.78
2023-03-20T01:15:32.805Z,9.69
2023-03-20T01:18:01.095Z,9.73
2023-03-20T01:20:31.008Z,9.66
2023-03-20T01:22:59.107Z,9.73
2023-03-20T01:25:27.245Z,9.74
2023-03-20T01:27:55.893Z,9.75
2023-03-20T01:30:29.826Z,9.77
2023-03-20T01:32:58.918Z,9.78
2023-03-20T01:35:28.301Z,9.79
2023-03-20T01:37:57.717Z,9.80
2023-03-20T01:40:34.477Z,9.79
2023-03-20T01:43:03.605Z,9.80
2023-03-20T01:45:36.542Z,9.82
2023-03-20T01:48:19.581Z,9.82
2023-03-20T01:50:48.711Z,9.83
2023-03-20T01:53:27.037Z,9.83
2023-03-20T01:56:00.858Z,9.82
2023-03-20T01:58:41.450Z,9.82
2023-03-20T02:01:12.483Z,9.83
2023-03-20T02:03:44.872Z,9.81
2023-03-20T02:06:23.631Z,9.80
2023-03-20T02:09:14.854Z,9.79
2023-03-20T02:11:46.541Z,9.62
2023-03-20T02:14:15.939Z,9.76
2023-03-20T02:16:54.952Z,9.74
2023-03-20T02:19:53.546Z,9.73
2023-03-20T02:22:31.499Z,9.71
2023-03-20T02:25:18.326Z,9.70
2023-03-20T02:28:08.315Z,9.67
2023-03-20T02:30:57.353Z,9.64
2023-03-20T02:33:45.956Z,9.61
2023-03-20T02:36:51.535Z,9.56
2023-03-20T02:39:50.401Z,9.47
2023-03-20T02:42:21.481Z,9.30
2023-03-20T02:44:53.474Z,9.33
2023-03-20T02:47:37.537Z,9.27
2023-03-20T02:50:37.542Z,9.24
2023-03-20T02:53:37.107Z,9.20
2023-03-20T02:56:20.356Z,9.16
2023-03-20T02:58:48.426Z,9.13
2023-03-20T03:01:22.758Z,9.12
2023-03-20T03:04:19.021Z,9.12
2023-03-20T03:06:50.601Z,9.09
2023-03-20T03:09:22.703Z,9.07
2023-03-20T03:11:56.132Z,9.08
2023-03-20T03:14:59.979Z,9.09
2023-03-20T03:17:33.241Z,9.08
2023-03-20T03:20:22.876Z,9.07
2023-03-20T03:22:51.469Z,9.03
2023-03-20T03:25:25.780Z,8.97
2023-03-20T03:28:03.216Z,8.94
2023-03-20T03:30:34.734Z,8.91
2023-03-20T03:33:22.015Z,8.88
2023-03-20T03:35:54.028Z,8.84
2023-03-20T03:38:46.601Z,8.78
2023-03-20T03:41:46.565Z,8.73
2023-03-20T03:44:21.195Z,8.68
2023-03-20T03:46:58.668Z,8.68
2023-03-20T03:49:31.987Z,8.68
2023-03-20T03:52:05.971Z,8.67
2023-03-20T03:54:49.938Z,8.66
2023-03-20T03:57:47.059Z,8.67
2023-03-20T04:00:22.085Z,8.67
2023-03-20T04:02:53.781Z,8.65
2023-03-20T04:05:24.957Z,8.63
2023-03-20T04:07:58.918Z,8.59
2023-03-20T04:10:27.156Z,8.54
2023-03-20T04:12:55.399Z,8.50
2023-03-20T04:15:23.615Z,8.48
2023-03-20T04:17:51.834Z,8.43
2023-03-20T04:20:20.512Z,8.35
2023-03-20T04:22:50.748Z,8.32
2023-03-20T04:25:26.746Z,8.28
2023-03-20T04:27:56.231Z,8.26
2023-03-20T04:30:35.654Z,8.24
2023-03-20T04:33:27.837Z,8.22
2023-03-20T04:36:14.907Z,8.22
2023-03-20T04:38:43.127Z,8.20
2023-03-20T04:41:11.414Z,8.18
2023-03-20T04:43:40.712Z,8.14
2023-03-20T04:46:09.487Z,8.08
2023-03-20T04:48:38.797Z,8.05
2023-03-20T04:51:07.288Z,7.96
2023-03-20T04:53:44.915Z,8.04
2023-03-20T04:56:14.041Z,8.03
2023-03-20T04:58:42.265Z,8.02
2023-03-20T05:01:11.530Z,8.01
2023-03-20T05:03:40.657Z,8.00
2023-03-20T05:06:09.301Z,7.99
2023-03-20T05:08:38.095Z,7.95
2023-03-20T05:11:08.306Z,7.92
2023-03-20T05:13:55.390Z,7.93
2023-03-20T05:16:42.258Z,7.94
2023-03-20T05:19:23.003Z,7.94
2023-03-20T05:22:02.021Z,7.94
2023-03-20T05:24:53.732Z,7.93
2023-03-20T05:27:38.380Z,7.92
2023-03-20T05:30:25.493Z,7.89
2023-03-20T05:33:23.281Z,7.88
2023-03-20T05:36:06.404Z,7.87
2023-03-20T05:38:49.067Z,7.86
2023-03-20T05:41:26.180Z,7.85
2023-03-20T05:44:26.838Z,7.83
2023-03-20T05:47:17.553Z,7.84
2023-03-20T05:49:58.397Z,7.83
2023-03-20T05:52:50.911Z,7.84
2023-03-20T05:55:23.583Z,7.86
2023-03-20T05:58:03.276Z,7.90
2023-03-20T06:00:58.170Z,7.99
2023-03-20T06:03:46.599Z,8.07
2023-03-20T06:06:17.340Z,8.13
2023-03-20T06:08:47.999Z,8.19
2023-03-20T06:11:16.194Z,8.25
2023-03-20T06:13:44.851Z,8.28
2023-03-20T06:16:13.308Z,8.29
2023-03-20T06:18:41.655Z,8.32
2023-03-20T06:21:11.954Z,8.37
2023-03-20T06:23:40.295Z,8.42
2023-03-20T06:26:08.835Z,8.42
2023-03-20T06:28:48.354Z,8.44
2023-03-20T06:31:17.182Z,8.45
2023-03-20T06:33:45.838Z,8.50
2023-03-20T06:36:14.642Z,8.50
2023-03-20T06:38:42.775Z,8.50
2023-03-20T06:41:24.599Z,8.52
2023-03-20T06:44:03.990Z,8.54
2023-03-20T06:46:46.746Z,8.59
2023-03-20T06:49:15.113Z,8.64
2023-03-20T06:51:43.379Z,8.69
2023-03-20T06:54:11.671Z,8.72
2023-03-20T06:56:39.877Z,8.76
2023-03-20T06:59:08.077Z,8.81
2023-03-20T07:01:36.253Z,8.84
2023-03-20T07:04:04.414Z,8.87
2023-03-20T07:06:38.075Z,8.83
2023-03-20T07:09:07.888Z,8.82
2023-03-20T07:11:36.077Z,8.86
2023-03-20T07:14:04.416Z,8.88
2023-03-20T07:16:43.659Z,8.91
2023-03-20T07:19:13.597Z,8.93
2023-03-20T07:21:44.041Z,8.96
2023-03-20T07:24:12.678Z,8.98
2023-03-20T07:26:41.359Z,9.01
2023-03-20T07:29:09.771Z,9.04
2023-03-20T07:31:38.572Z,9.07
2023-03-20T07:34:16.340Z,9.08
2023-03-20T07:36:45.366Z,9.09
2023-03-20T07:39:14.677Z,9.01
2023-03-20T07:41:45.358Z,9.13
2023-03-20T07:44:19.475Z,9.16
2023-03-20T07:46:54.506Z,9.16
2023-03-20T07:49:24.196Z,9.20
2023-03-20T07:51:54.730Z,9.23
2023-03-20T07:54:24.437Z,9.31
2023-03-20T07:56:53.636Z,9.39
2023-03-20T07:59:22.013Z,9.46
2023-03-20T08:01:50.257Z,9.52
2023-03-20T08:04:19.897Z,9.57
2023-03-20T08:06:48.288Z,9.66
2023-03-20T08:09:17.406Z,9.76
2023-03-20T08:11:46.219Z,9.89
2023-03-20T08:14:14.305Z,10.07
2023-03-20T08:16:42.448Z,10.23
2023-03-20T08:19:10.692Z,10.33
2023-03-20T08:21:38.907Z,10.46
2023-03-20T08:24:08.054Z,10.58
2023-03-20T08:26:36.432Z,10.66
2023-03-20T08:29:04.903Z,10.69
2023-03-20T08:31:33.225Z,10.82
2023-03-20T08:34:01.608Z,11.04
2023-03-20T08:36:29.704Z,11.23
2023-03-20T08:38:57.852Z,11.42
2023-03-20T08:41:25.963Z,11.50
2023-03-20T08:43:54.013Z,11.57
2023-03-20T08:46:22.495Z,11.65
2023-03-20T08:48:50.967Z,11.76
2023-03-20T08:51:19.133Z,11.81
2023-03-20T08:53:47.262Z,11.87
2023-03-20T08:56:15.426Z,11.85
2023-03-20T08:58:43.504Z,11.88
2023-03-20T09:01:11.739Z,11.99
2023-03-20T09:03:39.900Z,12.11
2023-03-20T09:06:09.193Z,12.24
2023-03-20T09:08:37.443Z,12.33
2023-03-20T09:11:07.187Z,12.29
2023-03-20T09:13:35.520Z,12.48
2023-03-20T09:16:03.954Z,12.54
2023-03-20T09:18:32.251Z,12.61
2023-03-20T09:21:00.425Z,12.60
2023-03-20T09:23:28.572Z,12.67
2023-03-20T09:25:56.687Z,12.70
2023-03-20T09:28:24.916Z,12.71
2023-03-20T09:30:58.140Z,12.68
2023-03-20T09:33:26.688Z,12.67
2023-03-20T09:35:55.025Z,12.71
2023-03-20T09:38:24.156Z,12.78
2023-03-20T09:40:52.500Z,12.85
2023-03-20T09:43:33.601Z,13.02
2023-03-20T09:46:08.617Z,13.45
2023-03-20T09:48:54.767Z,14.20
2023-03-20T09:51:49.735Z,15.00
2023-03-20T09:54:25.975Z,16.10
2023-03-20T09:56:56.680Z,16.41
2023-03-20T09:59:30.737Z,16.31
2023-03-20T10:02:11.872Z,16.36
2023-03-20T10:04:41.111Z,16.76
2023-03-20T10:07:18.595Z,17.15
2023-03-20T10:09:47.196Z,17.54
2023-03-20T10:12:47.734Z,18.18
2023-03-20T10:15:37.717Z,17.82
2023-03-20T10:18:25.549Z,17.62
2023-03-20T10:21:18.793Z,17.51
2023-03-20T10:23:56.549Z,17.40
2023-03-20T10:26:25.118Z,17.16
2023-03-20T10:29:19.175Z,16.81
2023-03-20T10:32:17.441Z,16.44
2023-03-20T10:35:16.822Z,16.19
2023-03-20T10:38:01.198Z,16.05
2023-03-20T10:40:36.412Z,15.88
2023-03-20T10:43:14.640Z,15.87
2023-03-20T10:45:50.705Z,15.98
2023-03-20T10:48:34.809Z,16.01
2023-03-20T10:51:03.556Z,16.12
2023-03-20T10:53:34.812Z,16.20
2023-03-20T10:56:08.966Z,16.18
2023-03-20T10:58:42.275Z,16.34
2023-03-20T11:01:11.085Z,16.60
2023-03-20T11:03:41.442Z,16.89
2023-03-20T11:06:19.283Z,16.96
2023-03-20T11:08:53.236Z,16.90
2023-03-20T11:11:34.506Z,16.94
2023-03-20T11:14:22.937Z,16.77
2023-03-20T11:16:56.171Z,16.61
2023-03-20T11:19:24.486Z,16.44
2023-03-20T11:21:56.931Z,16.24
2023-03-20T11:24:58.975Z,15.97
2023-03-20T11:27:29.860Z,15.73
2023-03-20T11:30:00.626Z,15.68
2023-03-20T11:32:33.118Z,15.51
2023-03-20T11:35:34.938Z,15.43
2023-03-20T11:38:14.693Z,15.32
2023-03-20T11:40:42.837Z,15.19
2023-03-20T11:43:14.128Z,15.13
2023-03-20T11:45:45.788Z,14.98
2023-03-20T11:48:20.578Z,14.79
2023-03-20T11:50:58.250Z,14.44
2023-03-20T11:53:31.628Z,14.09
2023-03-20T11:56:08.168Z,14.19
2023-03-20T11:58:39.894Z,14.87
2023-03-20T12:01:12.428Z,15.09
2023-03-20T12:03:45.507Z,15.20
2023-03-20T12:06:20.556Z,15.06
2023-03-20T12:08:57.171Z,14.95
2023-03-20T12:11:55.527Z,15.20
2023-03-20T12:14:43.499Z,15.78
2023-03-20T12:17:35.805Z,15.62
2023-03-20T12:20:27.969Z,15.56
2023-03-20T12:23:04.142Z,15.10
2023-03-20T12:26:25.774Z,15.34
2023-03-20T12:29:04.413Z,14.97
2023-03-20T12:31:50.678Z,14.63
2023-03-20T12:34:24.546Z,14.37
2023-03-20T12:36:53.240Z,14.19
2023-03-20T12:39:28.373Z,13.91
2023-03-20T12:42:11.874Z,13.62
2023-03-20T12:45:06.280Z,13.47
2023-03-20T12:48:04.106Z,13.42
2023-03-20T12:50:48.532Z,13.38
2023-03-20T12:53:38.133Z,13.38
2023-03-20T12:56:14.301Z,13.35
2023-03-20T12:58:54.597Z,13.32
2023-03-20T13:01:45.773Z,13.33
2023-03-20T13:04:16.976Z,13.41
2023-03-20T13:06:53.585Z,13.54
2023-03-20T13:09:48.137Z,13.55
2023-03-20T13:12:24.153Z,14.08
2023-03-20T13:15:10.782Z,14.26
2023-03-20T13:17:57.576Z,14.70
2023-03-20T13:20:36.956Z,15.07
2023-03-20T13:23:14.267Z,15.20
2023-03-20T13:25:57.460Z,15.45
2023-03-20T13:28:30.988Z,15.06
2023-03-20T13:31:18.008Z,14.79
2023-03-20T13:34:08.051Z,14.58
2023-03-20T13:36:48.108Z,14.45
2023-03-20T13:39:27.356Z,14.72
2023-03-20T13:41:56.376Z,14.53
2023-03-20T13:44:28.460Z,14.25
2023-03-20T13:47:01.248Z,14.55
2023-03-20T13:49:53.897Z,15.28
2023-03-20T13:52:32.638Z,15.11
2023-03-20T13:55:33.167Z,14.71
2023-03-20T13:58:07.389Z,15.31
2023-03-20T14:00:55.744Z,15.98
2023-03-20T14:03:30.351Z,15.75
2023-03-20T14:05:58.932Z,16.06
2023-03-20T14:08:27.163Z,16.46
2023-03-20T14:11:21.422Z,17.00
2023-03-20T14:13:55.455Z,17.46
2023-03-20T14:16:23.791Z,17.56
2023-03-20T14:19:08.050Z,17.62
2023-03-20T14:21:36.593Z,17.78
2023-03-20T14:24:07.072Z,17.49
2023-03-20T14:26:38.577Z,17.35
2023-03-20T14:29:09.397Z,17.51
2023-03-20T14:31:39.260Z,17.25
2023-03-20T14:34:13.267Z,17.09
2023-03-20T14:37:05.849Z,16.52
2023-03-20T14:39:43.652Z,15.72
2023-03-20T14:42:23.775Z,15.16
2023-03-20T14:45:37.620Z,14.60
2023-03-20T14:48:27.493Z,13.70
2023-03-20T14:51:26.681Z,12.78
2023-03-20T14:53:57.449Z,12.18
2023-03-20T14:56:34.093Z,12.00
2023-03-20T14:59:06.597Z,11.65
2023-03-20T15:01:43.650Z,11.41
2023-03-20T15:04:28.984Z,11.28
2023-03-20T15:06:57.018Z,11.19
2023-03-20T15:09:27.789Z,11.15
2023-03-20T15:12:04.365Z,11.01
2023-03-20T15:14:47.106Z,10.85
2023-03-20T15:17:24.320Z,10.78
2023-03-20T15:20:02.983Z,10.73
2023-03-20T15:22:31.259Z,10.61
2023-03-20T15:24:59.424Z,10.55
2023-03-20T15:27:30.898Z,10.49
2023-03-20T15:30:00.959Z,10.44
2023-03-20T15:32:29.416Z,10.35
2023-03-20T15:34:57.982Z,10.33
2023-03-20T15:37:27.279Z,10.21
2023-03-20T15:40:00.424Z,10.11
2023-03-20T15:42:30.671Z,9.95
2023-03-20T15:44:58.892Z,9.95
2023-03-20T15:47:27.189Z,9.93
2023-03-20T15:50:00.793Z,9.85
2023-03-20T15:52:32.344Z,9.72
2023-03-20T15:55:07.444Z,9.74
2023-03-20T15:57:40.943Z,9.69
2023-03-20T16:00:17.093Z,9.63
2023-03-20T16:02:49.098Z,9.62
2023-03-20T16:05:18.862Z,9.59
2023-03-20T16:07:47.472Z,9.52
2023-03-20T16:10:20.759Z,9.48
2023-03-20T16:12:51.220Z,9.47
2023-03-20T16:15:20.638Z,9.42
2023-03-20T16:17:53.155Z,9.35
2023-03-20T16:20:22.512Z,9.30
2023-03-20T16:22:53.543Z,9.25
2023-03-20T16:25:21.913Z,9.23
2023-03-20T16:27:51.901Z,9.21
2023-03-20T16:30:27.664Z,9.20
2023-03-20T16:33:01.687Z,9.20
2023-03-20T16:35:39.323Z,9.21
2023-03-20T16:38:37.297Z,9.24
2023-03-20T16:41:28.636Z,9.21
2023-03-20T16:43:57.964Z,9.06
2023-03-20T16:46:28.153Z,9.10
2023-03-20T16:49:02.373Z,9.08
2023-03-20T16:51:31.601Z,9.07
2023-03-20T16:54:03.944Z,9.07
2023-03-20T16:56:37.556Z,9.07
2023-03-20T16:59:10.864Z,9.08
2023-03-20T17:01:43.945Z,9.06
2023-03-20T17:04:41.674Z,9.06
2023-03-20T17:07:16.205Z,9.04
2023-03-20T17:10:12.676Z,9.00
2023-03-20T17:12:42.148Z,9.03
2023-03-20T17:15:15.422Z,9.03
2023-03-20T17:17:44.016Z,9.02
2023-03-20T17:20:24.324Z,9.01
2023-03-20T17:22:52.853Z,8.97
2023-03-20T17:25:21.553Z,8.94
2023-03-20T17:27:50.437Z,8.91
2023-03-20T17:30:25.114Z,8.86
2023-03-20T17:32:53.516Z,8.84
2023-03-20T17:35:21.821Z,8.83
2023-03-20T17:37:50.190Z,8.75
2023-03-20T17:40:23.186Z,8.83
2023-03-20T17:42:51.639Z,8.83
2023-03-20T17:45:21.677Z,8.70
2023-03-20T17:47:51.736Z,8.84
2023-03-20T17:50:25.529Z,8.82
2023-03-20T17:52:55.106Z,8.83
2023-03-20T17:55:23.372Z,8.81
2023-03-20T17:57:51.649Z,8.81
2023-03-20T18:00:23.349Z,8.79
2023-03-20T18:02:52.360Z,8.80
2023-03-20T18:05:20.935Z,8.81
2023-03-20T18:07:49.110Z,8.80
2023-03-20T18:10:28.752Z,8.78
2023-03-20T18:12:56.882Z,8.76
2023-03-20T18:15:25.302Z,8.76
2023-03-20T18:17:53.773Z,8.75
2023-03-20T18:20:33.720Z,8.74
2023-03-20T18:23:02.101Z,8.73
2023-03-20T18:25:30.706Z,8.73
2023-03-20T18:28:00.992Z,8.73
2023-03-20T18:30:41.215Z,8.71
2023-03-20T18:33:09.515Z,8.68
2023-03-20T18:35:38.180Z,8.68
2023-03-20T18:38:06.480Z,8.67
2023-03-20T18:40:37.033Z,8.67
2023-03-20T18:43:05.533Z,8.67
2023-03-20T18:45:33.723Z,8.68
2023-03-20T18:48:04.010Z,8.69
2023-03-20T18:50:38.307Z,8.72
2023-03-20T18:53:07.664Z,8.77
2023-03-20T18:55:38.321Z,8.69
2023-03-20T18:58:06.951Z,8.73
2023-03-20T19:00:40.542Z,8.81
2023-03-20T19:03:10.810Z,8.78
2023-03-20T19:05:39.381Z,8.75
2023-03-20T19:08:07.618Z,8.72
2023-03-20T19:10:39.443Z,8.72
2023-03-20T19:13:08.048Z,8.72
2023-03-20T19:15:37.434Z,8.64
2023-03-20T19:18:08.163Z,8.56
2023-03-20T19:20:39.436Z,8.48
2023-03-20T19:23:13.689Z,8.44
2023-03-20T19:25:43.854Z,8.37
2023-03-20T19:28:37.747Z,8.33
2023-03-20T19:31:08.095Z,8.28
2023-03-20T19:33:37.345Z,8.26
2023-03-20T19:36:07.019Z,8.24
2023-03-20T19:38:37.172Z,8.21
2023-03-20T19:41:05.534Z,8.14
2023-03-20T19:43:33.759Z,8.07
2023-03-20T19:46:02.785Z,8.03
2023-03-20T19:48:49.720Z,7.99
2023-03-20T19:51:21.921Z,7.95
2023-03-20T19:53:51.552Z,7.91
2023-03-20T19:56:22.637Z,7.88
2023-03-20T19:58:50.869Z,7.87
2023-03-20T20:01:22.375Z,7.85
2023-03-20T20:03:53.702Z,7.84
2023-03-20T20:06:29.652Z,7.85
2023-03-20T20:09:01.246Z,7.84
2023-03-20T20:11:29.675Z,7.83
2023-03-20T20:14:06.605Z,7.81
2023-03-20T20:16:36.803Z,7.79
2023-03-20T20:19:05.400Z,7.78
2023-03-20T20:24:22.666Z,7.74
2023-03-20T20:26:56.738Z,7.83
2023-03-20T20:29:31.481Z,7.81
2023-03-20T20:31:59.957Z,7.80
2023-03-20T20:40:07.512Z,7.74
2023-03-20T20:42:37.321Z,7.73
2023-03-20T20:45:07.437Z,7.71
2023-03-20T20:47:35.736Z,7.70
2023-03-20T20:50:04.260Z,7.68
2023-03-20T20:52:35.869Z,7.68
2023-03-20T20:55:21.696Z,7.66
2023-03-20T20:57:53.189Z,7.56
2023-03-20T21:00:27.521Z,7.59
2023-03-20T21:03:00.028Z,7.53
2023-03-20T21:05:31.128Z,7.50
2023-03-20T21:07:59.236Z,7.50
2023-03-20T21:10:27.397Z,7.49
2023-03-20T21:12:59.486Z,7.46
2023-03-20T21:15:28.095Z,7.44
2023-03-20T21:18:03.435Z,7.42
2023-03-20T21:20:32.588Z,7.39
2023-03-20T21:23:00.826Z,7.37
2023-03-20T21:25:39.708Z,7.35
2023-03-20T21:28:10.447Z,7.35
2023-03-20T21:30:54.528Z,7.36
2023-03-20T21:33:24.698Z,7.38
2023-03-20T21:35:53.413Z,7.40
2023-03-20T21:38:58.662Z,7.32
2023-03-20T21:41:10.825Z,7.38
2023-03-20T21:43:40.193Z,7.38
2023-03-20T21:55:12.897Z,7.36
2023-03-20T22:03:09.968Z,7.40
2023-03-20T22:06:38.665Z,7.40
2023-03-20T22:12:01.752Z,7.37
2023-03-20T22:17:51.007Z,7.40
2023-03-20T22:23:21.673Z,7.41
2023-03-20T22:29:09.447Z,7.38
2023-03-20T22:38:17.136Z,7.34
2023-03-20T22:42:48.963Z,7.35
2023-03-20T22:45:04.114Z,7.33
2023-03-20T22:47:33.137Z,7.29
2023-03-20T22:50:01.474Z,7.27
2023-03-20T22:52:45.463Z,7.26
2023-03-20T22:55:17.256Z,7.22
2023-03-20T22:57:59.847Z,7.17
2023-03-20T23:00:34.925Z,7.13
2023-03-20T23:03:19.595Z,7.11
2023-03-20T23:05:53.742Z,7.09
2023-03-20T23:08:22.580Z,7.04
2023-03-20T23:10:51.749Z,7.03
2023-03-20T23:13:20.612Z,6.87
2023-03-20T23:15:50.681Z,7.03
2023-03-20T23:18:18.840Z,7.01
2023-03-20T23:20:46.987Z,7.00
2023-03-20T23:23:15.489Z,6.97
2023-03-20T23:25:43.673Z,6.98
2023-03-20T23:28:12.042Z,6.87
2023-03-20T23:30:56.733Z,6.96
2023-03-20T23:33:28.495Z,6.95
2023-03-20T23:36:10.901Z,6.94
2023-03-20T23:38:43.055Z,6.94
2023-03-20T23:41:12.189Z,6.83
2023-03-20T23:43:40.795Z,6.93
2023-03-20T23:46:09.541Z,6.94
2023-03-20T23:48:39.379Z,6.95
2023-03-20T23:51:09.123Z,6.96
2023-03-20T23:53:37.285Z,6.91
2023-03-20T23:56:06.293Z,7.03
2023-03-20T23:58:35.977Z,7.07
